sensor_id;sensor_type;location;lat;lon;timestamp;P1;durP1;ratioP1;P2;durP2;ratioP2
62711;SDS011;48772;55.586;37.730;2023-05-23T00:00:55;19.52;;;10.05;;
62711;SDS011;48772;55.586;37.730;2023-05-23T00:03:23;16.92;;;9.63;;
62711;SDS011;48772;55.586;37.730;2023-05-23T00:05:50;19.77;;;9.80;;
62711;SDS011;48772;55.586;37.730;2023-05-23T00:08:16;17.73;;;10.10;;
62711;SDS011;48772;55.586;37.730;2023-05-23T00:10:42;17.65;;;10.27;;
62711;SDS011;48772;55.586;37.730;2023-05-23T00:13:08;20.90;;;10.77;;
62711;SDS011;48772;55.586;37.730;2023-05-23T00:15:38;25.45;;;10.85;;
62711;SDS011;48772;55.586;37.730;2023-05-23T00:18:06;16.13;;;10.82;;
62711;SDS011;48772;55.586;37.730;2023-05-23T00:20:36;20.20;;;11.15;;
62711;SDS011;48772;55.586;37.730;2023-05-23T00:23:07;18.20;;;10.80;;
62711;SDS011;48772;55.586;37.730;2023-05-23T00:25:35;22.10;;;11.05;;
62711;SDS011;48772;55.586;37.730;2023-05-23T00:28:02;25.38;;;11.48;;
62711;SDS011;48772;55.586;37.730;2023-05-23T00:30:30;21.27;;;11.68;;
62711;SDS011;48772;55.586;37.730;2023-05-23T00:32:57;22.95;;;13.07;;
62711;SDS011;48772;55.586;37.730;2023-05-23T00:35:24;24.55;;;12.73;;
62711;SDS011;48772;55.586;37.730;2023-05-23T00:37:51;22.52;;;13.07;;
62711;SDS011;48772;55.586;37.730;2023-05-23T00:40:17;22.52;;;13.90;;
62711;SDS011;48772;55.586;37.730;2023-05-23T00:42:43;21.05;;;12.70;;
62711;SDS011;48772;55.586;37.730;2023-05-23T00:45:13;35.10;;;12.30;;
62711;SDS011;48772;55.586;37.730;2023-05-23T00:47:40;22.50;;;13.20;;
62711;SDS011;48772;55.586;37.730;2023-05-23T00:50:10;26.88;;;13.35;;
62711;SDS011;48772;55.586;37.730;2023-05-23T00:52:39;22.73;;;13.57;;
62711;SDS011;48772;55.586;37.730;2023-05-23T00:55:05;30.27;;;14.68;;
62711;SDS011;48772;55.586;37.730;2023-05-23T00:57:33;22.42;;;12.93;;
62711;SDS011;48772;55.586;37.730;2023-05-23T00:59:59;24.10;;;12.60;;
62711;SDS011;48772;55.586;37.730;2023-05-23T01:02:26;19.83;;;11.35;;
62711;SDS011;48772;55.586;37.730;2023-05-23T01:04:52;19.83;;;11.05;;
62711;SDS011;48772;55.586;37.730;2023-05-23T01:07:20;22.20;;;11.25;;
62711;SDS011;48772;55.586;37.730;2023-05-23T01:09:46;20.48;;;11.13;;
62711;SDS011;48772;55.586;37.730;2023-05-23T01:12:33;23.60;;;11.00;;
62711;SDS011;48772;55.586;37.730;2023-05-23T01:15:17;25.13;;;12.95;;
62711;SDS011;48772;55.586;37.730;2023-05-23T01:17:51;27.10;;;13.05;;
62711;SDS011;48772;55.586;37.730;2023-05-23T01:26:26;22.20;;;11.45;;
62711;SDS011;48772;55.586;37.730;2023-05-23T01:31:51;18.52;;;11.43;;
62711;SDS011;48772;55.586;37.730;2023-05-23T01:34:19;18.33;;;11.15;;
62711;SDS011;48772;55.586;37.730;2023-05-23T01:36:48;23.63;;;11.32;;
62711;SDS011;48772;55.586;37.730;2023-05-23T01:39:15;19.45;;;12.10;;
62711;SDS011;48772;55.586;37.730;2023-05-23T01:41:41;23.17;;;11.95;;
62711;SDS011;48772;55.586;37.730;2023-05-23T01:44:07;24.35;;;12.43;;
62711;SDS011;48772;55.586;37.730;2023-05-23T01:46:33;26.10;;;11.88;;
62711;SDS011;48772;55.586;37.730;2023-05-23T01:49:04;23.40;;;11.18;;
62711;SDS011;48772;55.586;37.730;2023-05-23T01:51:32;22.25;;;11.35;;
62711;SDS011;48772;55.586;37.730;2023-05-23T01:54:00;21.80;;;11.70;;
62711;SDS011;48772;55.586;37.730;2023-05-23T01:56:26;25.00;;;12.05;;
62711;SDS011;48772;55.586;37.730;2023-05-23T01:58:53;27.35;;;11.63;;
62711;SDS011;48772;55.586;37.730;2023-05-23T02:01:20;22.67;;;11.93;;
62711;SDS011;48772;55.586;37.730;2023-05-23T02:03:46;26.85;;;11.20;;
62711;SDS011;48772;55.586;37.730;2023-05-23T02:06:12;20.05;;;10.60;;
62711;SDS011;48772;55.586;37.730;2023-05-23T02:08:38;22.48;;;10.90;;
62711;SDS011;48772;55.586;37.730;2023-05-23T02:11:03;18.48;;;10.55;;
62711;SDS011;48772;55.586;37.730;2023-05-23T02:13:30;21.88;;;11.05;;
62711;SDS011;48772;55.586;37.730;2023-05-23T02:15:56;21.98;;;10.35;;
62711;SDS011;48772;55.586;37.730;2023-05-23T02:18:22;16.88;;;10.57;;
62711;SDS011;48772;55.586;37.730;2023-05-23T02:21:10;18.38;;;10.90;;
62711;SDS011;48772;55.586;37.730;2023-05-23T02:23:36;17.40;;;10.32;;
62711;SDS011;48772;55.586;37.730;2023-05-23T02:26:02;19.90;;;9.52;;
62711;SDS011;48772;55.586;37.730;2023-05-23T02:28:28;18.00;;;9.98;;
62711;SDS011;48772;55.586;37.730;2023-05-23T02:30:54;19.13;;;9.68;;
62711;SDS011;48772;55.586;37.730;2023-05-23T02:33:20;20.17;;;10.43;;
62711;SDS011;48772;55.586;37.730;2023-05-23T02:35:46;19.98;;;9.90;;
62711;SDS011;48772;55.586;37.730;2023-05-23T02:38:14;17.17;;;9.90;;
62711;SDS011;48772;55.586;37.730;2023-05-23T02:40:41;20.40;;;9.80;;
62711;SDS011;48772;55.586;37.730;2023-05-23T02:43:06;17.73;;;9.50;;
62711;SDS011;48772;55.586;37.730;2023-05-23T02:45:33;22.50;;;9.75;;
62711;SDS011;48772;55.586;37.730;2023-05-23T02:47:59;13.85;;;9.40;;
62711;SDS011;48772;55.586;37.730;2023-05-23T02:50:25;16.42;;;9.48;;
62711;SDS011;48772;55.586;37.730;2023-05-23T02:52:51;20.60;;;8.90;;
62711;SDS011;48772;55.586;37.730;2023-05-23T02:55:17;24.10;;;9.63;;
62711;SDS011;48772;55.586;37.730;2023-05-23T02:57:46;17.30;;;8.45;;
62711;SDS011;48772;55.586;37.730;2023-05-23T03:00:12;15.60;;;8.52;;
62711;SDS011;48772;55.586;37.730;2023-05-23T03:02:39;13.30;;;8.50;;
62711;SDS011;48772;55.586;37.730;2023-05-23T03:05:05;18.80;;;9.23;;
62711;SDS011;48772;55.586;37.730;2023-05-23T03:07:31;17.65;;;8.75;;
62711;SDS011;48772;55.586;37.730;2023-05-23T03:09:59;16.25;;;8.05;;
62711;SDS011;48772;55.586;37.730;2023-05-23T03:12:26;15.35;;;8.90;;
62711;SDS011;48772;55.586;37.730;2023-05-23T03:14:53;18.17;;;8.60;;
62711;SDS011;48772;55.586;37.730;2023-05-23T03:17:19;13.77;;;7.78;;
62711;SDS011;48772;55.586;37.730;2023-05-23T03:19:45;16.88;;;9.05;;
62711;SDS011;48772;55.586;37.730;2023-05-23T03:22:11;18.60;;;8.77;;
62711;SDS011;48772;55.586;37.730;2023-05-23T03:24:37;23.42;;;8.60;;
62711;SDS011;48772;55.586;37.730;2023-05-23T03:27:03;15.63;;;8.60;;
62711;SDS011;48772;55.586;37.730;2023-05-23T03:29:29;13.13;;;8.13;;
62711;SDS011;48772;55.586;37.730;2023-05-23T03:31:56;15.85;;;8.45;;
62711;SDS011;48772;55.586;37.730;2023-05-23T03:34:21;15.55;;;8.15;;
62711;SDS011;48772;55.586;37.730;2023-05-23T03:36:48;18.08;;;8.57;;
62711;SDS011;48772;55.586;37.730;2023-05-23T03:39:14;19.27;;;8.88;;
62711;SDS011;48772;55.586;37.730;2023-05-23T03:41:40;15.63;;;7.68;;
62711;SDS011;48772;55.586;37.730;2023-05-23T03:44:06;10.88;;;7.28;;
62711;SDS011;48772;55.586;37.730;2023-05-23T03:46:33;21.85;;;8.38;;
62711;SDS011;48772;55.586;37.730;2023-05-23T03:48:59;11.93;;;7.32;;
62711;SDS011;48772;55.586;37.730;2023-05-23T03:51:25;12.02;;;7.28;;
62711;SDS011;48772;55.586;37.730;2023-05-23T03:53:51;13.23;;;8.23;;
62711;SDS011;48772;55.586;37.730;2023-05-23T03:56:17;17.02;;;8.15;;
62711;SDS011;48772;55.586;37.730;2023-05-23T03:58:43;15.77;;;9.13;;
62711;SDS011;48772;55.586;37.730;2023-05-23T04:01:13;15.07;;;8.57;;
62711;SDS011;48772;55.586;37.730;2023-05-23T04:03:39;14.40;;;7.82;;
62711;SDS011;48772;55.586;37.730;2023-05-23T04:06:05;18.60;;;7.85;;
62711;SDS011;48772;55.586;37.730;2023-05-23T04:08:33;14.48;;;8.10;;
62711;SDS011;48772;55.586;37.730;2023-05-23T04:11:00;15.35;;;8.93;;
62711;SDS011;48772;55.586;37.730;2023-05-23T04:13:33;18.17;;;8.93;;
62711;SDS011;48772;55.586;37.730;2023-05-23T04:16:00;19.15;;;7.72;;
62711;SDS011;48772;55.586;37.730;2023-05-23T04:18:26;17.85;;;8.10;;
62711;SDS011;48772;55.586;37.730;2023-05-23T04:20:53;14.23;;;7.03;;
62711;SDS011;48772;55.586;37.730;2023-05-23T04:23:20;22.17;;;7.70;;
62711;SDS011;48772;55.586;37.730;2023-05-23T04:25:49;15.52;;;7.15;;
62711;SDS011;48772;55.586;37.730;2023-05-23T04:28:20;22.35;;;8.13;;
62711;SDS011;48772;55.586;37.730;2023-05-23T04:30:46;16.33;;;7.88;;
62711;SDS011;48772;55.586;37.730;2023-05-23T04:33:16;13.70;;;7.57;;
62711;SDS011;48772;55.586;37.730;2023-05-23T04:35:42;18.48;;;7.75;;
62711;SDS011;48772;55.586;37.730;2023-05-23T04:38:08;12.05;;;7.53;;
62711;SDS011;48772;55.586;37.730;2023-05-23T04:40:53;12.10;;;7.97;;
62711;SDS011;48772;55.586;37.730;2023-05-23T04:43:25;11.95;;;7.95;;
62711;SDS011;48772;55.586;37.730;2023-05-23T04:46:00;14.98;;;7.60;;
62711;SDS011;48772;55.586;37.730;2023-05-23T04:48:39;11.15;;;7.57;;
62711;SDS011;48772;55.586;37.730;2023-05-23T04:51:05;15.95;;;8.23;;
62711;SDS011;48772;55.586;37.730;2023-05-23T04:53:57;10.40;;;7.25;;
62711;SDS011;48772;55.586;37.730;2023-05-23T04:56:23;16.20;;;7.50;;
62711;SDS011;48772;55.586;37.730;2023-05-23T04:58:53;18.98;;;8.25;;
62711;SDS011;48772;55.586;37.730;2023-05-23T05:01:19;15.48;;;7.05;;
62711;SDS011;48772;55.586;37.730;2023-05-23T05:04:03;13.45;;;7.68;;
62711;SDS011;48772;55.586;37.730;2023-05-23T05:06:29;13.50;;;6.20;;
62711;SDS011;48772;55.586;37.730;2023-05-23T05:08:56;18.42;;;8.07;;
62711;SDS011;48772;55.586;37.730;2023-05-23T05:11:21;17.67;;;8.15;;
62711;SDS011;48772;55.586;37.730;2023-05-23T05:13:47;17.20;;;8.70;;
62711;SDS011;48772;55.586;37.730;2023-05-23T05:16:13;17.38;;;8.43;;
62711;SDS011;48772;55.586;37.730;2023-05-23T05:18:39;20.65;;;8.52;;
62711;SDS011;48772;55.586;37.730;2023-05-23T05:21:06;14.32;;;8.65;;
62711;SDS011;48772;55.586;37.730;2023-05-23T05:23:32;19.63;;;7.93;;
62711;SDS011;48772;55.586;37.730;2023-05-23T05:25:58;14.68;;;8.00;;
62711;SDS011;48772;55.586;37.730;2023-05-23T05:28:26;20.20;;;9.50;;
62711;SDS011;48772;55.586;37.730;2023-05-23T05:30:52;17.92;;;9.20;;
62711;SDS011;48772;55.586;37.730;2023-05-23T05:33:20;13.98;;;8.13;;
62711;SDS011;48772;55.586;37.730;2023-05-23T05:35:55;20.00;;;7.80;;
62711;SDS011;48772;55.586;37.730;2023-05-23T05:38:21;13.90;;;7.68;;
62711;SDS011;48772;55.586;37.730;2023-05-23T05:40:47;15.88;;;7.47;;
62711;SDS011;48772;55.586;37.730;2023-05-23T05:43:14;11.75;;;7.55;;
62711;SDS011;48772;55.586;37.730;2023-05-23T05:45:41;15.27;;;7.38;;
62711;SDS011;48772;55.586;37.730;2023-05-23T05:48:07;16.65;;;7.35;;
62711;SDS011;48772;55.586;37.730;2023-05-23T05:50:36;15.43;;;7.18;;
62711;SDS011;48772;55.586;37.730;2023-05-23T05:53:02;12.02;;;7.40;;
62711;SDS011;48772;55.586;37.730;2023-05-23T05:55:28;12.63;;;7.10;;
62711;SDS011;48772;55.586;37.730;2023-05-23T05:57:54;14.27;;;6.80;;
62711;SDS011;48772;55.586;37.730;2023-05-23T06:00:21;14.45;;;6.65;;
62711;SDS011;48772;55.586;37.730;2023-05-23T06:02:54;11.68;;;6.47;;
62711;SDS011;48772;55.586;37.730;2023-05-23T06:05:33;12.73;;;7.13;;
62711;SDS011;48772;55.586;37.730;2023-05-23T06:07:59;12.15;;;6.80;;
62711;SDS011;48772;55.586;37.730;2023-05-23T06:10:26;15.65;;;6.72;;
62711;SDS011;48772;55.586;37.730;2023-05-23T06:12:52;9.70;;;5.80;;
62711;SDS011;48772;55.586;37.730;2023-05-23T06:15:17;15.52;;;6.93;;
62711;SDS011;48772;55.586;37.730;2023-05-23T06:17:44;20.05;;;6.88;;
62711;SDS011;48772;55.586;37.730;2023-05-23T06:20:13;17.60;;;6.70;;
62711;SDS011;48772;55.586;37.730;2023-05-23T06:22:42;15.88;;;6.57;;
62711;SDS011;48772;55.586;37.730;2023-05-23T06:25:07;14.43;;;6.20;;
62711;SDS011;48772;55.586;37.730;2023-05-23T06:27:34;12.18;;;6.80;;
62711;SDS011;48772;55.586;37.730;2023-05-23T06:30:01;12.57;;;6.35;;
62711;SDS011;48772;55.586;37.730;2023-05-23T06:32:31;10.85;;;6.63;;
62711;SDS011;48772;55.586;37.730;2023-05-23T06:34:57;17.88;;;6.70;;
62711;SDS011;48772;55.586;37.730;2023-05-23T06:37:23;11.52;;;5.93;;
62711;SDS011;48772;55.586;37.730;2023-05-23T06:39:49;15.02;;;6.30;;
62711;SDS011;48772;55.586;37.730;2023-05-23T06:42:16;13.45;;;5.65;;
62711;SDS011;48772;55.586;37.730;2023-05-23T06:45:08;14.07;;;5.85;;
62711;SDS011;48772;55.586;37.730;2023-05-23T06:47:34;10.45;;;5.20;;
62711;SDS011;48772;55.586;37.730;2023-05-23T06:50:01;11.85;;;5.65;;
62711;SDS011;48772;55.586;37.730;2023-05-23T06:52:30;8.57;;;5.05;;
62711;SDS011;48772;55.586;37.730;2023-05-23T06:54:56;18.70;;;5.93;;
62711;SDS011;48772;55.586;37.730;2023-05-23T06:57:22;19.77;;;5.85;;
62711;SDS011;48772;55.586;37.730;2023-05-23T06:59:49;12.43;;;5.20;;
62711;SDS011;48772;55.586;37.730;2023-05-23T07:02:15;10.65;;;4.95;;
62711;SDS011;48772;55.586;37.730;2023-05-23T07:04:47;7.70;;;4.22;;
62711;SDS011;48772;55.586;37.730;2023-05-23T07:07:19;16.02;;;5.88;;
62711;SDS011;48772;55.586;37.730;2023-05-23T07:09:45;15.57;;;5.70;;
62711;SDS011;48772;55.586;37.730;2023-05-23T07:12:15;11.45;;;5.18;;
62711;SDS011;48772;55.586;37.730;2023-05-23T07:14:44;9.57;;;4.43;;
62711;SDS011;48772;55.586;37.730;2023-05-23T07:17:10;16.65;;;4.65;;
62711;SDS011;48772;55.586;37.730;2023-05-23T07:19:37;16.10;;;5.43;;
62711;SDS011;48772;55.586;37.730;2023-05-23T07:22:03;14.48;;;6.13;;
62711;SDS011;48772;55.586;37.730;2023-05-23T07:24:34;13.93;;;6.18;;
62711;SDS011;48772;55.586;37.730;2023-05-23T07:27:04;12.98;;;5.55;;
62711;SDS011;48772;55.586;37.730;2023-05-23T07:29:34;15.15;;;5.53;;
62711;SDS011;48772;55.586;37.730;2023-05-23T07:32:06;16.10;;;5.97;;
62711;SDS011;48772;55.586;37.730;2023-05-23T07:34:32;14.88;;;6.75;;
62711;SDS011;48772;55.586;37.730;2023-05-23T07:37:00;14.40;;;6.55;;
62711;SDS011;48772;55.586;37.730;2023-05-23T07:39:31;11.48;;;6.38;;
62711;SDS011;48772;55.586;37.730;2023-05-23T07:41:59;12.55;;;7.32;;
62711;SDS011;48772;55.586;37.730;2023-05-23T07:44:25;15.05;;;6.45;;
62711;SDS011;48772;55.586;37.730;2023-05-23T07:46:52;12.80;;;5.82;;
62711;SDS011;48772;55.586;37.730;2023-05-23T07:49:18;18.13;;;6.88;;
62711;SDS011;48772;55.586;37.730;2023-05-23T07:51:44;12.35;;;6.45;;
62711;SDS011;48772;55.586;37.730;2023-05-23T07:54:10;14.75;;;5.65;;
62711;SDS011;48772;55.586;37.730;2023-05-23T07:56:38;12.52;;;5.00;;
62711;SDS011;48772;55.586;37.730;2023-05-23T07:59:06;12.43;;;5.07;;
62711;SDS011;48772;55.586;37.730;2023-05-23T08:01:42;12.98;;;5.18;;
62711;SDS011;48772;55.586;37.730;2023-05-23T08:04:12;13.63;;;4.93;;
62711;SDS011;48772;55.586;37.730;2023-05-23T08:06:46;14.10;;;5.15;;
62711;SDS011;48772;55.586;37.730;2023-05-23T08:09:12;9.88;;;5.45;;
62711;SDS011;48772;55.586;37.730;2023-05-23T08:11:43;14.77;;;5.05;;
62711;SDS011;48772;55.586;37.730;2023-05-23T08:14:10;15.25;;;5.47;;
62711;SDS011;48772;55.586;37.730;2023-05-23T08:16:37;7.78;;;4.78;;
62711;SDS011;48772;55.586;37.730;2023-05-23T08:19:07;15.45;;;5.20;;
62711;SDS011;48772;55.586;37.730;2023-05-23T08:21:34;9.90;;;4.90;;
62711;SDS011;48772;55.586;37.730;2023-05-23T08:24:01;12.73;;;5.43;;
62711;SDS011;48772;55.586;37.730;2023-05-23T08:26:27;5.55;;;4.47;;
62711;SDS011;48772;55.586;37.730;2023-05-23T08:29:00;12.73;;;4.72;;
62711;SDS011;48772;55.586;37.730;2023-05-23T08:31:30;7.72;;;4.45;;
62711;SDS011;48772;55.586;37.730;2023-05-23T08:33:57;10.55;;;5.35;;
62711;SDS011;48772;55.586;37.730;2023-05-23T08:36:23;9.13;;;4.80;;
62711;SDS011;48772;55.586;37.730;2023-05-23T08:38:49;8.13;;;4.65;;
62711;SDS011;48772;55.586;37.730;2023-05-23T08:41:30;10.68;;;4.93;;
62711;SDS011;48772;55.586;37.730;2023-05-23T08:44:01;8.93;;;4.72;;
62711;SDS011;48772;55.586;37.730;2023-05-23T08:46:32;9.95;;;5.57;;
62711;SDS011;48772;55.586;37.730;2023-05-23T08:49:03;11.73;;;4.70;;
62711;SDS011;48772;55.586;37.730;2023-05-23T08:51:31;11.77;;;5.32;;
62711;SDS011;48772;55.586;37.730;2023-05-23T08:54:04;13.60;;;5.65;;
62711;SDS011;48772;55.586;37.730;2023-05-23T08:56:31;8.18;;;4.50;;
62711;SDS011;48772;55.586;37.730;2023-05-23T08:58:59;12.25;;;4.40;;
62711;SDS011;48772;55.586;37.730;2023-05-23T09:01:27;13.98;;;4.40;;
62711;SDS011;48772;55.586;37.730;2023-05-23T09:04:07;9.43;;;3.80;;
62711;SDS011;48772;55.586;37.730;2023-05-23T09:06:47;6.18;;;3.97;;
62711;SDS011;48772;55.586;37.730;2023-05-23T09:09:14;7.32;;;3.22;;
62711;SDS011;48772;55.586;37.730;2023-05-23T09:11:40;5.35;;;3.00;;
62711;SDS011;48772;55.586;37.730;2023-05-23T09:14:10;6.28;;;3.28;;
62711;SDS011;48772;55.586;37.730;2023-05-23T09:16:39;11.57;;;3.10;;
62711;SDS011;48772;55.586;37.730;2023-05-23T09:19:12;5.65;;;3.50;;
62711;SDS011;48772;55.586;37.730;2023-05-23T09:21:41;5.55;;;3.47;;
62711;SDS011;48772;55.586;37.730;2023-05-23T09:24:14;8.13;;;3.58;;
62711;SDS011;48772;55.586;37.730;2023-05-23T09:26:41;12.88;;;3.90;;
62711;SDS011;48772;55.586;37.730;2023-05-23T09:29:10;8.18;;;3.80;;
62711;SDS011;48772;55.586;37.730;2023-05-23T09:31:36;7.97;;;4.13;;
62711;SDS011;48772;55.586;37.730;2023-05-23T09:34:02;7.97;;;4.35;;
62711;SDS011;48772;55.586;37.730;2023-05-23T09:36:29;7.40;;;4.40;;
62711;SDS011;48772;55.586;37.730;2023-05-23T09:41:47;8.68;;;4.47;;
62711;SDS011;48772;55.586;37.730;2023-05-23T09:44:14;6.65;;;4.63;;
62711;SDS011;48772;55.586;37.730;2023-05-23T09:47:07;7.95;;;4.53;;
62711;SDS011;48772;55.586;37.730;2023-05-23T09:49:33;9.82;;;4.55;;
62711;SDS011;48772;55.586;37.730;2023-05-23T09:51:59;12.32;;;4.97;;
62711;SDS011;48772;55.586;37.730;2023-05-23T09:54:25;7.22;;;4.85;;
62711;SDS011;48772;55.586;37.730;2023-05-23T09:56:52;7.13;;;4.30;;
62711;SDS011;48772;55.586;37.730;2023-05-23T09:59:41;8.05;;;4.53;;
62711;SDS011;48772;55.586;37.730;2023-05-23T10:02:10;6.28;;;4.57;;
62711;SDS011;48772;55.586;37.730;2023-05-23T10:04:37;6.97;;;4.75;;
62711;SDS011;48772;55.586;37.730;2023-05-23T10:07:26;8.45;;;4.50;;
62711;SDS011;48772;55.586;37.730;2023-05-23T10:09:53;8.20;;;4.68;;
62711;SDS011;48772;55.586;37.730;2023-05-23T10:15:01;8.57;;;4.88;;
62711;SDS011;48772;55.586;37.730;2023-05-23T10:20:11;8.70;;;5.43;;
62711;SDS011;48772;55.586;37.730;2023-05-23T10:22:41;9.50;;;5.35;;
62711;SDS011;48772;55.586;37.730;2023-05-23T10:25:08;12.65;;;6.38;;
62711;SDS011;48772;55.586;37.730;2023-05-23T10:27:38;10.98;;;5.88;;
62711;SDS011;48772;55.586;37.730;2023-05-23T10:30:07;10.93;;;6.70;;
62711;SDS011;48772;55.586;37.730;2023-05-23T10:32:34;7.85;;;5.15;;
62711;SDS011;48772;55.586;37.730;2023-05-23T10:35:06;10.23;;;4.88;;
62711;SDS011;48772;55.586;37.730;2023-05-23T10:41:01;14.60;;;6.57;;
62711;SDS011;48772;55.586;37.730;2023-05-23T10:46:53;8.80;;;6.10;;
62711;SDS011;48772;55.586;37.730;2023-05-23T10:49:45;10.18;;;5.80;;
62711;SDS011;48772;55.586;37.730;2023-05-23T10:52:16;12.55;;;6.70;;
62711;SDS011;48772;55.586;37.730;2023-05-23T10:54:43;7.88;;;6.15;;
62711;SDS011;48772;55.586;37.730;2023-05-23T10:57:14;10.93;;;6.72;;
62711;SDS011;48772;55.586;37.730;2023-05-23T10:59:41;8.68;;;5.70;;
62711;SDS011;48772;55.586;37.730;2023-05-23T11:02:12;8.07;;;6.00;;
62711;SDS011;48772;55.586;37.730;2023-05-23T11:04:40;13.80;;;6.60;;
62711;SDS011;48772;55.586;37.730;2023-05-23T11:10:10;8.10;;;5.72;;
62711;SDS011;48772;55.586;37.730;2023-05-23T11:12:42;11.57;;;6.43;;
62711;SDS011;48772;55.586;37.730;2023-05-23T11:17:48;12.50;;;7.53;;
62711;SDS011;48772;55.586;37.730;2023-05-23T11:20:19;11.90;;;7.20;;
62711;SDS011;48772;55.586;37.730;2023-05-23T11:23:21;10.23;;;8.45;;
62711;SDS011;48772;55.586;37.730;2023-05-23T11:25:49;12.50;;;8.27;;
62711;SDS011;48772;55.586;37.730;2023-05-23T11:28:16;13.30;;;7.28;;
62711;SDS011;48772;55.586;37.730;2023-05-23T11:30:43;14.40;;;7.80;;
62711;SDS011;48772;55.586;37.730;2023-05-23T11:33:13;11.30;;;7.68;;
62711;SDS011;48772;55.586;37.730;2023-05-23T11:35:42;10.85;;;7.45;;
62711;SDS011;48772;55.586;37.730;2023-05-23T11:38:14;9.23;;;8.02;;
62711;SDS011;48772;55.586;37.730;2023-05-23T11:40:42;13.38;;;7.63;;
62711;SDS011;48772;55.586;37.730;2023-05-23T11:43:11;11.90;;;8.20;;
62711;SDS011;48772;55.586;37.730;2023-05-23T11:45:39;12.90;;;7.32;;
62711;SDS011;48772;55.586;37.730;2023-05-23T11:50:41;11.85;;;8.10;;
62711;SDS011;48772;55.586;37.730;2023-05-23T11:53:15;13.43;;;9.00;;
62711;SDS011;48772;55.586;37.730;2023-05-23T11:55:56;13.88;;;9.75;;
62711;SDS011;48772;55.586;37.730;2023-05-23T11:58:31;12.98;;;10.43;;
62711;SDS011;48772;55.586;37.730;2023-05-23T12:01:02;15.73;;;11.85;;
62711;SDS011;48772;55.586;37.730;2023-05-23T12:03:45;15.35;;;11.05;;
62711;SDS011;48772;55.586;37.730;2023-05-23T12:06:19;11.38;;;9.55;;
62711;SDS011;48772;55.586;37.730;2023-05-23T12:08:46;14.32;;;9.40;;
62711;SDS011;48772;55.586;37.730;2023-05-23T12:11:12;12.70;;;8.55;;
62711;SDS011;48772;55.586;37.730;2023-05-23T12:13:39;14.68;;;8.23;;
62711;SDS011;48772;55.586;37.730;2023-05-23T12:16:09;14.93;;;8.20;;
62711;SDS011;48772;55.586;37.730;2023-05-23T12:18:38;12.63;;;7.68;;
62711;SDS011;48772;55.586;37.730;2023-05-23T12:21:05;10.65;;;7.65;;
62711;SDS011;48772;55.586;37.730;2023-05-23T12:23:32;10.27;;;7.00;;
62711;SDS011;48772;55.586;37.730;2023-05-23T12:26:03;13.18;;;7.57;;
62711;SDS011;48772;55.586;37.730;2023-05-23T12:28:35;8.40;;;6.10;;
62711;SDS011;48772;55.586;37.730;2023-05-23T12:33:41;11.57;;;6.95;;
62711;SDS011;48772;55.586;37.730;2023-05-23T12:36:12;13.13;;;6.82;;
62711;SDS011;48772;55.586;37.730;2023-05-23T12:38:46;12.32;;;7.15;;
62711;SDS011;48772;55.586;37.730;2023-05-23T12:41:16;13.98;;;7.15;;
62711;SDS011;48772;55.586;37.730;2023-05-23T12:43:51;10.23;;;7.00;;
62711;SDS011;48772;55.586;37.730;2023-05-23T12:46:19;15.68;;;7.07;;
62711;SDS011;48772;55.586;37.730;2023-05-23T12:48:45;19.33;;;7.90;;
62711;SDS011;48772;55.586;37.730;2023-05-23T12:51:12;13.65;;;6.97;;
62711;SDS011;48772;55.586;37.730;2023-05-23T12:53:38;13.90;;;6.88;;
62711;SDS011;48772;55.586;37.730;2023-05-23T12:56:04;13.32;;;6.88;;
62711;SDS011;48772;55.586;37.730;2023-05-23T12:58:30;14.13;;;7.65;;
62711;SDS011;48772;55.586;37.730;2023-05-23T13:00:57;17.77;;;7.82;;
62711;SDS011;48772;55.586;37.730;2023-05-23T13:03:23;11.75;;;8.15;;
62711;SDS011;48772;55.586;37.730;2023-05-23T13:05:49;14.85;;;8.60;;
62711;SDS011;48772;55.586;37.730;2023-05-23T13:08:15;20.42;;;9.18;;
62711;SDS011;48772;55.586;37.730;2023-05-23T13:10:43;14.00;;;8.68;;
62711;SDS011;48772;55.586;37.730;2023-05-23T13:13:09;14.73;;;8.85;;
62711;SDS011;48772;55.586;37.730;2023-05-23T13:15:35;9.88;;;7.70;;
62711;SDS011;48772;55.586;37.730;2023-05-23T13:18:04;18.92;;;9.57;;
62711;SDS011;48772;55.586;37.730;2023-05-23T13:20:33;13.15;;;7.72;;
62711;SDS011;48772;55.586;37.730;2023-05-23T13:22:59;13.55;;;7.88;;
62711;SDS011;48772;55.586;37.730;2023-05-23T13:25:25;15.68;;;7.53;;
62711;SDS011;48772;55.586;37.730;2023-05-23T13:27:52;9.93;;;7.43;;
62711;SDS011;48772;55.586;37.730;2023-05-23T13:30:21;15.48;;;7.65;;
62711;SDS011;48772;55.586;37.730;2023-05-23T13:32:48;19.40;;;7.68;;
62711;SDS011;48772;55.586;37.730;2023-05-23T13:35:14;14.55;;;7.10;;
62711;SDS011;48772;55.586;37.730;2023-05-23T13:37:40;13.32;;;6.57;;
62711;SDS011;48772;55.586;37.730;2023-05-23T13:40:06;11.13;;;6.00;;
62711;SDS011;48772;55.586;37.730;2023-05-23T13:42:33;14.02;;;5.28;;
62711;SDS011;48772;55.586;37.730;2023-05-23T13:44:59;11.35;;;5.85;;
62711;SDS011;48772;55.586;37.730;2023-05-23T13:47:25;10.85;;;6.43;;
62711;SDS011;48772;55.586;37.730;2023-05-23T13:49:50;10.18;;;6.07;;
62711;SDS011;48772;55.586;37.730;2023-05-23T13:52:16;11.02;;;6.68;;
62711;SDS011;48772;55.586;37.730;2023-05-23T13:54:43;14.63;;;7.43;;
62711;SDS011;48772;55.586;37.730;2023-05-23T13:57:10;15.15;;;6.75;;
62711;SDS011;48772;55.586;37.730;2023-05-23T13:59:36;15.38;;;7.18;;
62711;SDS011;48772;55.586;37.730;2023-05-23T14:02:02;17.23;;;8.55;;
62711;SDS011;48772;55.586;37.730;2023-05-23T14:04:28;13.75;;;7.45;;
62711;SDS011;48772;55.586;37.730;2023-05-23T14:07:12;18.40;;;7.97;;
62711;SDS011;48772;55.586;37.730;2023-05-23T14:09:38;18.38;;;7.72;;
62711;SDS011;48772;55.586;37.730;2023-05-23T14:12:04;14.93;;;7.60;;
62711;SDS011;48772;55.586;37.730;2023-05-23T14:14:30;14.40;;;7.55;;
62711;SDS011;48772;55.586;37.730;2023-05-23T14:16:56;13.02;;;7.95;;
62711;SDS011;48772;55.586;37.730;2023-05-23T14:19:22;13.68;;;8.10;;
62711;SDS011;48772;55.586;37.730;2023-05-23T14:21:48;19.55;;;7.18;;
62711;SDS011;48772;55.586;37.730;2023-05-23T14:24:14;22.58;;;7.60;;
62711;SDS011;48772;55.586;37.730;2023-05-23T14:26:40;18.30;;;8.40;;
62711;SDS011;48772;55.586;37.730;2023-05-23T14:29:06;18.48;;;8.07;;
62711;SDS011;48772;55.586;37.730;2023-05-23T14:31:32;16.25;;;8.60;;
62711;SDS011;48772;55.586;37.730;2023-05-23T14:33:58;18.80;;;8.38;;
62711;SDS011;48772;55.586;37.730;2023-05-23T14:36:24;15.95;;;9.77;;
62711;SDS011;48772;55.586;37.730;2023-05-23T14:38:53;17.27;;;8.82;;
62711;SDS011;48772;55.586;37.730;2023-05-23T14:41:19;19.73;;;9.75;;
62711;SDS011;48772;55.586;37.730;2023-05-23T14:43:45;18.73;;;9.43;;
62711;SDS011;48772;55.586;37.730;2023-05-23T14:46:11;14.90;;;9.23;;
62711;SDS011;48772;55.586;37.730;2023-05-23T14:48:39;19.20;;;9.68;;
62711;SDS011;48772;55.586;37.730;2023-05-23T14:51:06;23.63;;;9.75;;
62711;SDS011;48772;55.586;37.730;2023-05-23T14:53:31;20.50;;;10.20;;
62711;SDS011;48772;55.586;37.730;2023-05-23T14:55:57;13.70;;;9.10;;
62711;SDS011;48772;55.586;37.730;2023-05-23T14:58:23;22.83;;;10.35;;
62711;SDS011;48772;55.586;37.730;2023-05-23T15:00:50;21.67;;;10.20;;
62711;SDS011;48772;55.586;37.730;2023-05-23T15:03:16;16.90;;;9.63;;